Medical Lake, Washington
Current Conditions -  °F | °C
As of 1:44 AM on Thursday 18 Dec 2014 (Local Time) from KSKA Reporting Station
Overcast Overcast  
Wind Chill: 32°   Ceiling: 500
Heat Index: 32°   Visibility: 10mi
Dew Point: 32°   Wind: 0mph
Humidity: 100%   Direction: NA
Pressure: 29.96"   Gusts: NA
Location:  47.57°N, 117.68°W
Report Text: KSKA 180944Z AUTO 00000KT 10SM BKN005 OVC033 00/00 A2996 RMK AO2 CIG 005V007
Loading
Personal Weather Stations






























Interactive Weather Map New forecast layout! Learn more

10-Day Weather Forecast

Advertisements
Track Severe Weather on mobile